createdAt,value
2023-02-05T00:04:58.709Z,69.55
2023-02-05T00:10:30.176Z,69.78
2023-02-05T00:16:01.332Z,69.83
2023-02-05T00:21:32.680Z,70.32
2023-02-05T00:27:04.010Z,70.03
2023-02-05T00:32:35.222Z,70.49
2023-02-05T00:38:06.774Z,70.11
2023-02-05T00:43:39.338Z,70.26
2023-02-05T00:49:10.406Z,70.03
2023-02-05T00:54:41.670Z,69.95
2023-02-05T01:00:13.468Z,70.40
2023-02-05T01:05:44.899Z,70.00
2023-02-05T01:11:16.263Z,70.42
2023-02-05T01:16:47.378Z,70.33
2023-02-05T01:22:18.528Z,70.04
2023-02-05T01:27:50.135Z,70.20
2023-02-05T01:33:21.417Z,69.80
2023-02-05T01:38:54.515Z,69.83
2023-02-05T01:44:26.374Z,69.77
2023-02-05T01:49:58.169Z,70.66
2023-02-05T01:55:30.349Z,70.05
2023-02-05T02:01:02.172Z,69.81
2023-02-05T02:06:35.586Z,69.87
2023-02-05T02:12:08.961Z,70.16
2023-02-05T02:17:43.707Z,70.07
2023-02-05T02:23:33.523Z,69.81
2023-02-05T02:29:05.415Z,69.96
2023-02-05T02:34:45.039Z,70.17
2023-02-05T02:40:22.485Z,69.50
2023-02-05T02:46:04.312Z,69.59
2023-02-05T02:51:38.971Z,69.31
2023-02-05T02:57:10.924Z,69.57
2023-02-05T03:02:44.329Z,69.17
2023-02-05T03:08:24.000Z,69.69
2023-02-05T03:13:56.612Z,69.41
2023-02-05T03:19:32.225Z,69.51
2023-02-05T03:25:06.579Z,69.45
2023-02-05T03:31:02.340Z,69.75
2023-02-05T03:36:43.802Z,69.61
2023-02-05T03:42:27.754Z,69.39
2023-02-05T03:48:05.587Z,69.28
2023-02-05T03:53:38.896Z,69.49
2023-02-05T03:59:14.000Z,69.64
2023-02-05T04:04:46.397Z,69.14
2023-02-05T04:10:19.739Z,69.10
2023-02-05T04:15:52.382Z,68.74
2023-02-05T04:21:23.972Z,68.80
2023-02-05T04:26:56.322Z,68.67
2023-02-05T04:32:28.417Z,68.72
2023-02-05T04:38:00.334Z,68.65
2023-02-05T04:43:32.139Z,68.42
2023-02-05T04:49:03.204Z,68.94
2023-02-05T04:54:36.029Z,68.14
2023-02-05T05:00:08.155Z,68.65
2023-02-05T05:05:39.123Z,68.83
2023-02-05T05:11:14.926Z,68.62
2023-02-05T05:16:45.996Z,68.21
2023-02-05T05:22:17.150Z,68.56
2023-02-05T05:27:48.907Z,68.72
2023-02-05T05:33:20.077Z,68.20
2023-02-05T05:38:51.410Z,68.24
2023-02-05T05:44:22.666Z,68.26
2023-02-05T05:49:53.685Z,67.94
2023-02-05T05:55:24.924Z,68.11
2023-02-05T06:00:56.264Z,67.95
2023-02-05T06:06:27.418Z,68.07
2023-02-05T06:11:58.789Z,68.05
2023-02-05T06:17:30.079Z,67.97
2023-02-05T06:23:01.263Z,68.17
2023-02-05T06:28:32.521Z,68.17
2023-02-05T06:34:03.471Z,68.27
2023-02-05T06:39:34.807Z,67.80
2023-02-05T06:45:06.293Z,67.65
2023-02-05T06:50:37.631Z,67.93
2023-02-05T06:56:09.003Z,67.84
2023-02-05T07:01:40.181Z,67.88
2023-02-05T07:07:11.307Z,67.88
2023-02-05T07:12:42.661Z,67.44
2023-02-05T07:18:13.847Z,67.49
2023-02-05T07:23:45.714Z,67.90
2023-02-05T07:29:17.077Z,67.42
2023-02-05T07:34:48.222Z,67.51
2023-02-05T07:40:19.867Z,67.51
2023-02-05T07:45:58.487Z,67.32
2023-02-05T07:51:29.915Z,67.24
2023-02-05T07:57:02.339Z,67.51
2023-02-05T08:02:33.692Z,67.42
2023-02-05T08:08:05.348Z,67.33
2023-02-05T08:13:36.673Z,67.12
2023-02-05T08:19:12.550Z,67.25
2023-02-05T08:24:44.379Z,67.30
2023-02-05T08:30:18.298Z,67.10
2023-02-05T08:35:49.259Z,67.91
2023-02-05T08:41:20.632Z,67.68
2023-02-05T08:46:51.980Z,67.80
2023-02-05T08:52:23.296Z,67.67
2023-02-05T08:57:54.565Z,67.96
2023-02-05T09:03:25.567Z,67.97
2023-02-05T09:08:56.810Z,67.93
2023-02-05T09:14:28.029Z,67.82
2023-02-05T09:19:59.408Z,68.01
2023-02-05T09:25:34.471Z,67.87
2023-02-05T09:31:24.342Z,68.01
2023-02-05T09:36:55.726Z,67.61
2023-02-05T09:42:35.258Z,68.17
2023-02-05T09:48:07.500Z,67.73
2023-02-05T09:53:42.991Z,67.62
2023-02-05T09:59:20.445Z,67.32
2023-02-05T10:04:55.189Z,67.68
2023-02-05T10:10:35.794Z,67.46
2023-02-05T10:16:11.096Z,68.08
2023-02-05T10:21:56.901Z,68.27
2023-02-05T10:27:35.838Z,67.64
2023-02-05T10:33:36.066Z,67.64
2023-02-05T10:39:14.456Z,68.22
2023-02-05T10:44:47.366Z,68.06
2023-02-05T10:50:48.557Z,68.21
2023-02-05T10:56:20.071Z,68.02
2023-02-05T11:01:51.929Z,68.25
2023-02-05T11:07:33.744Z,68.04
2023-02-05T11:13:18.967Z,68.16
2023-02-05T11:18:58.674Z,67.45
2023-02-05T11:24:36.315Z,67.81
2023-02-05T11:36:23.439Z,67.72
2023-02-05T11:41:56.819Z,67.86
2023-02-05T11:47:31.931Z,67.78
2023-02-05T11:53:12.469Z,67.68
2023-02-05T11:58:45.461Z,67.28
2023-02-05T12:04:21.337Z,67.54
2023-02-05T12:09:59.015Z,67.96
2023-02-05T12:15:37.704Z,67.76
2023-02-05T12:21:08.803Z,67.47
2023-02-05T12:26:42.701Z,67.83
2023-02-05T12:32:20.383Z,67.16
2023-02-05T12:38:32.465Z,67.48
2023-02-05T12:44:33.118Z,67.85
2023-02-05T12:50:26.158Z,67.40
2023-02-05T12:56:40.205Z,68.05
2023-02-05T13:02:25.326Z,68.19
2023-02-05T13:08:34.824Z,67.57
2023-02-05T13:14:11.699Z,67.94
2023-02-05T13:19:46.461Z,67.73
2023-02-05T13:25:37.964Z,67.46
2023-02-05T13:31:26.566Z,68.05
2023-02-05T13:37:28.627Z,67.49
2023-02-05T13:43:10.684Z,68.24
2023-02-05T13:49:10.065Z,67.92
2023-02-05T13:55:08.362Z,68.07
2023-02-05T14:00:43.934Z,67.86
2023-02-05T14:06:24.669Z,68.06
2023-02-05T14:11:58.497Z,68.17
2023-02-05T14:17:29.338Z,68.02
2023-02-05T14:23:02.726Z,68.10
2023-02-05T14:28:34.869Z,68.02
2023-02-05T14:34:29.063Z,67.93
2023-02-05T14:40:12.686Z,68.05
2023-02-05T14:45:46.840Z,68.25
2023-02-05T14:51:36.596Z,68.50
2023-02-05T14:57:15.444Z,68.19
2023-02-05T15:03:17.230Z,68.46
2023-02-05T15:09:06.564Z,67.86
2023-02-05T15:14:41.745Z,67.97
2023-02-05T15:20:28.279Z,68.57
2023-02-05T15:26:05.892Z,68.64
2023-02-05T15:31:49.429Z,68.57
2023-02-05T15:37:27.313Z,68.10
2023-02-05T15:43:02.246Z,68.68
2023-02-05T15:48:35.964Z,68.59
2023-02-05T15:54:08.061Z,68.83
2023-02-05T15:59:40.226Z,68.60
2023-02-05T16:05:20.114Z,68.55
2023-02-05T16:10:58.418Z,68.51
2023-02-05T16:16:31.758Z,68.37
2023-02-05T16:22:31.538Z,68.75
2023-02-05T16:28:06.879Z,67.93
2023-02-05T16:33:42.219Z,68.30
2023-02-05T16:39:27.745Z,68.15
2023-02-05T16:45:18.609Z,67.73
2023-02-05T16:50:50.966Z,67.94
2023-02-05T16:56:24.279Z,67.76
2023-02-05T17:01:55.604Z,67.70
2023-02-05T17:07:27.349Z,67.78
2023-02-05T17:13:06.171Z,67.99
2023-02-05T17:18:38.257Z,68.11
2023-02-05T17:24:09.864Z,67.63
2023-02-05T17:29:41.099Z,67.65
2023-02-05T17:35:18.377Z,67.36
2023-02-05T17:40:50.415Z,67.78
2023-02-05T17:46:21.442Z,67.75
2023-02-05T17:51:52.669Z,67.06
2023-02-05T17:57:23.802Z,67.88
2023-02-05T18:02:54.995Z,67.72
2023-02-05T18:08:26.205Z,67.96
2023-02-05T18:13:57.468Z,67.35
2023-02-05T18:19:29.713Z,67.42
2023-02-05T18:25:01.105Z,67.83
2023-02-05T18:30:32.174Z,67.87
2023-02-05T18:36:07.523Z,67.13
2023-02-05T18:41:39.142Z,67.54
2023-02-05T18:47:11.201Z,67.51
2023-02-05T18:52:42.262Z,67.40
2023-02-05T18:58:13.280Z,67.30
2023-02-05T19:03:44.555Z,67.12
2023-02-05T19:09:15.713Z,67.14
2023-02-05T19:14:49.492Z,67.21
2023-02-05T19:20:20.713Z,66.59
2023-02-05T19:25:52.376Z,66.92
2023-02-05T19:31:25.944Z,66.88
2023-02-05T19:36:57.506Z,67.20
2023-02-05T19:42:30.538Z,66.75
2023-02-05T19:48:01.972Z,67.20
2023-02-05T19:53:34.197Z,66.69
2023-02-05T19:59:06.513Z,67.11
2023-02-05T20:04:40.954Z,66.83
2023-02-05T20:10:12.284Z,66.74
2023-02-05T20:15:43.456Z,66.75
2023-02-05T20:21:16.840Z,66.68
2023-02-05T20:26:48.798Z,66.75
2023-02-05T20:32:20.298Z,66.65
2023-02-05T20:37:51.498Z,66.76
2023-02-05T20:43:22.747Z,66.55
2023-02-05T20:48:54.072Z,66.59
2023-02-05T20:54:25.146Z,66.52
2023-02-05T20:59:56.310Z,66.24
2023-02-05T21:05:27.179Z,66.09
2023-02-05T21:10:58.513Z,66.12
2023-02-05T21:16:29.733Z,66.46
2023-02-05T21:22:00.714Z,66.50
2023-02-05T21:27:31.860Z,66.13
2023-02-05T21:33:03.458Z,66.57
2023-02-05T21:38:36.136Z,65.90
2023-02-05T21:44:07.224Z,65.84
2023-02-05T21:49:38.619Z,66.43
2023-02-05T21:55:10.157Z,66.21
2023-02-05T22:00:41.192Z,65.93
2023-02-05T22:06:12.415Z,65.76
2023-02-05T22:11:44.752Z,66.08
2023-02-05T22:17:16.121Z,66.26
2023-02-05T22:22:47.189Z,65.94
2023-02-05T22:28:17.995Z,66.47
2023-02-05T22:33:50.770Z,66.27
2023-02-05T22:39:21.988Z,66.08
2023-02-05T22:44:55.504Z,66.07
2023-02-05T22:50:26.567Z,66.20
2023-02-05T22:56:04.148Z,66.00
2023-02-05T23:01:36.736Z,65.84
2023-02-05T23:07:07.827Z,66.13
2023-02-05T23:12:38.794Z,65.90
2023-02-05T23:18:10.127Z,66.10
2023-02-05T23:23:42.065Z,65.96
2023-02-05T23:29:15.012Z,66.05
2023-02-05T23:34:46.078Z,66.06
2023-02-05T23:40:17.114Z,65.78
2023-02-05T23:45:49.868Z,66.20
2023-02-05T23:51:20.981Z,66.05
2023-02-05T23:56:52.313Z,65.58
